Weather observations for the past three days for
Winder, Winder-Barrow Airport
Metric (Imperial)
Date Time (edt) Wind (kph) Vis. (km) Weather Sky Cond. Temperature (ºC) Relative Humidity Wind Chill (°C) Heat Index (°C) Pressure Precipitation (cm)
Air Dwpt 6 hour altimeter (cm) sea level (mb) 1 hr 3 hr 6 hr
Max. Min.
04 23:35 Calm 16.09 Fair CLR 16 7 55% 76.25 0.0
04 23:15 Calm 16.09 Fair CLR 16 8 59% 76.25 0.0
04 22:55 Calm 16.09 Fair CLR 16 8 59% 76.25 0.0
04 22:35 Calm 16.09 Fair CLR 16 8 59% 76.25 0.0
04 22:15 Calm 16.09 Fair CLR 17 8 56% 76.23 0.0
04 21:55 Calm 16.09 Fair CLR 17 8 56% 76.23 0.0
04 21:35 Calm 16.09 Fair CLR 17 8 56% 76.2 0.0
04 21:15 Calm 16.09 Fair CLR 17 9 60% 76.2 0.0
04 20:55 Calm 16.09 Fair CLR 19 8 49% 76.17 0.0
04 20:35 Calm 16.09 Fair CLR 20 7 43% 76.17 0.0
04 20:15 Calm 16.09 Fair CLR 21 7 40% 76.17 0.0
04 19:55 Calm 16.09 Fair CLR 22 6 36% 76.17 0.0
04 19:35 Calm 16.09 Fair CLR 23 7 36% 76.17 0.0
04 19:15 Calm 16.09 Fair CLR 23 7 36% 76.17 0.0
04 18:55 Calm 16.09 Fair CLR 23 7 36% 76.15 0.0
04 18:35 Calm 16.09 Fair CLR 23 7 36% 76.15 0.0
04 18:15 Calm 16.09 Fair CLR 24 6 31% 25 76.15 0.0
04 17:55 Calm 16.09 Fair CLR 25 6 30% 25 76.15 0.0
04 17:35 Calm 16.09 Fair CLR 25 6 30% 25 76.15 0.0
04 17:15 Calm 16.09 Fair CLR 24 6 31% 25 76.15 0.0
04 16:55 Calm 16.09 Fair CLR 25 7 32% 25 76.15 0.0
04 16:35 Calm 16.09 Fair CLR 25 6 30% 25 76.17 0.0
04 16:15 Calm 16.09 Fair CLR 25 7 32% 25 76.17 0.0
04 15:55 Calm 16.09 Fair CLR 24 6 31% 25 76.17 0.0
04 15:35 Calm 16.09 Fair CLR 23 7 36% 76.2 0.0
04 15:15 Calm 16.09 Fair CLR 24 7 34% 25 76.23 0.0
04 14:55 Calm 16.09 Fair CLR 23 6 33% 76.25 0.0
04 14:35 Calm 16.09 Fair CLR 24 6 31% 25 76.25 0.0
04 14:15 Calm 16.09 Fair CLR 23 6 33% 76.28 0.0
04 13:55 Calm 16.09 Fair CLR 23 7 36% 76.3 0.0
04 13:35 Calm 16.09 Fair CLR 23 7 36% 76.3 0.0
04 13:15 Calm 16.09 Fair CLR 22 7 38% 76.33 0.0
04 12:55 Calm 16.09 Fair CLR 22 7 38% 76.35 0.0
04 12:35 Calm 16.09 Fair CLR 22 6 36% 76.38 0.0
04 12:15 Calm 16.09 Fair CLR 21 6 38% 76.38 0.0
04 11:55 Calm 16.09 Fair CLR 21 6 38% 76.43 0.0
04 11:35 Calm 16.09 Fair CLR 21 6 38% 76.43 0.0
04 11:15 Calm 16.09 Fair CLR 20 6 40% 76.43 0.0
04 10:55 Calm 16.09 Fair CLR 20 6 40% 76.43 0.0
04 10:35 Calm 16.09 Fair CLR 19 6 43% 76.43 0.0
04 10:15 Calm 16.09 Fair CLR 18 6 46% 76.43 0.0
04 09:55 Calm 16.09 Fair CLR 18 6 46% 76.43 0.0
04 09:35 Calm 16.09 Fair CLR 17 7 52% 76.43 0.0
04 09:15 Calm 16.09 Fair CLR 16 6 52% 76.43 0.0
04 08:55 Calm 16.09 Fair CLR 15 6 55% 76.43 0.0
04 08:35 Calm 16.09 Fair CLR 12 7 72% 76.43 0.0
04 08:15 Calm 16.09 Fair CLR 11 6 72% 76.43 0.0
04 07:55 Calm 16.09 Fair CLR 10 6 76% 76.43 0.0
04 07:35 Calm 16.09 Fair CLR 8 6 87% 76.43 0.0
04 07:15 Calm 16.09 Fair CLR 7 5 87% 76.4 0.0
04 06:55 Calm 16.09 Fair CLR 7 5 87% 76.4 0.0
04 06:35 Calm 16.09 Fair CLR 6 5 93% 76.4 0.0
04 06:15 Calm 16.09 Fair CLR 7 5 87% 76.38 0.0
04 05:55 Calm 16.09 Fair CLR 7 5 87% 76.38 0.0
04 05:15 Calm 16.09 Fair CLR 7 5 87% 76.38 0.0
04 04:55 Calm 16.09 Fair CLR 7 5 87% 76.38 0.0
04 04:35 Calm 16.09 Fair CLR 7 5 87% 76.38 0.0
04 04:15 Calm 16.09 Fair CLR 8 6 87% 76.38 0.0
04 03:55 Calm 16.09 Fair CLR 9 5 76% 76.4 0.0
04 03:35 Calm 16.09 Fair CLR 8 5 82% 76.4 0.0
04 03:15 Calm 16.09 Fair CLR 8 6 87% 76.4 0.0
04 02:55 Calm 16.09 Fair CLR 10 4 67% 76.4 0.0
04 02:35 Calm 16.09 Fair CLR 10 4 67% 76.4 0.0
04 02:15 Calm 16.09 Fair CLR 10 5 71% 76.4 0.0
04 01:55 Calm 16.09 Fair CLR 11 4 62% 76.4 0.0
04 01:35 Calm 16.09 Fair CLR 12 4 58% 76.43 0.0
04 01:15 Calm 16.09 Fair CLR 12 4 58% 76.4 0.0
04 00:55 Calm 16.09 Fair CLR 12 4 58% 76.4 0.0
04 00:35 Calm 16.09 Fair CLR 12 4 58% 76.43 0.0
04 00:15 Calm 16.09 Fair CLR 12 4 58% 76.43 0.0
03 23:55 Calm 16.09 Fair CLR 12 4 58% 76.43 0.0
03 23:35 Calm 16.09 Fair CLR 13 3 51% 76.43 0.0
03 23:15 Calm 16.09 Fair CLR 13 3 51% 76.43 0.0
03 22:55 Calm 16.09 Fair CLR 13 4 55% 76.43 0.0
03 22:35 Calm 16.09 Fair CLR 13 4 55% 76.43 0.0
03 22:15 Calm 16.09 Fair CLR 13 4 55% 76.4 0.0
03 21:55 Calm 16.09 Fair CLR 13 4 55% 76.38 0.0
03 21:35 Calm 16.09 Fair CLR 15 3 45% 76.38 0.0
03 21:15 Calm 16.09 Fair CLR 15 3 45% 76.35 0.0
03 20:55 Calm 16.09 Fair CLR 16 2 39% 76.33 0.0
03 20:35 Calm 16.09 Fair CLR 16 2 39% 76.33 0.0
03 20:15 Calm 16.09 Fair CLR 17 2 37% 76.3 0.0
03 19:55 Calm 16.09 Fair CLR 18 2 34% 76.3 0.0
03 19:35 Calm 16.09 Fair CLR 19 1 30% 76.3 0.0
03 19:15 Calm 16.09 Fair CLR 20 1 28% 76.3 0.0
03 18:55 Calm 16.09 Fair CLR 20 1 28% 76.3 0.0
03 18:35 Calm 16.09 Fair CLR 21 1 27% 76.3 0.0
03 18:15 Calm 16.09 Fair CLR 21 1 27% 76.3 0.0
03 17:55 Calm 16.09 Fair CLR 21 2 29% 76.3 0.0
03 17:35 Calm 16.09 Fair CLR 21 2 29% 76.33 0.0
03 17:15 Calm 16.09 Fair CLR 21 2 29% 76.33 0.0
03 16:55 Calm 16.09 Fair CLR 21 2 29% 76.35 0.0
03 16:35 Calm 16.09 Fair CLR 21 2 29% 76.35 0.0
03 16:15 Calm 16.09 Fair CLR 20 2 30% 76.38 0.0
03 15:55 Calm 16.09 Fair CLR 20 2 30% 76.4 0.0
03 15:35 Calm 16.09 Fair CLR 20 2 30% 76.43 0.0
03 15:15 Calm 16.09 Fair CLR 20 2 30% 76.48 0.0
03 14:35 Calm 16.09 Fair CLR 20 2 30% 76.5 0.0
03 14:15 Calm 16.09 Fair CLR 19 3 35% 76.53 0.0
03 13:55 Calm 16.09 Fair CLR 18 3 37% 76.53 0.0
03 13:35 Calm 16.09 Fair CLR 18 2 34% 76.53 0.0
03 13:15 Calm 16.09 Fair CLR 18 2 34% 76.56 0.0
03 12:55 Calm 16.09 Fair CLR 18 2 34% 76.56 0.0
03 12:35 Calm 16.09 Fair CLR 17 3 39% 76.58 0.0
03 12:15 Calm 16.09 Fair CLR 17 4 42% 76.61 0.0
03 11:55 Calm 16.09 Fair CLR 16 3 42% 76.61 0.0
03 11:35 Calm 16.09 Fair CLR 16 3 42% 76.63 0.0
03 11:15 Calm 16.09 Fair CLR 15 4 48% 76.63 0.0
03 10:55 Calm 16.09 Fair CLR 15 5 51% 76.61 0.0
03 10:35 Calm 16.09 Fair CLR 14 5 55% 76.61 0.0
03 10:15 Calm 16.09 Fair CLR 14 5 55% 76.61 0.0
03 09:55 Calm 16.09 Fair CLR 13 5 59% 76.61 0.0
03 09:35 Calm 16.09 Fair CLR 12 5 63% 76.61 0.0
03 09:15 Calm 16.09 Fair CLR 12 5 63% 76.58 0.0
03 08:35 Calm 16.09 Fair CLR 11 5 67% 76.58 0.0
03 08:15 Calm 16.09 Fair CLR 10 5 71% 76.58 0.0
03 07:55 Calm 16.09 Fair CLR 10 5 71% 76.56 0.0
03 07:35 Calm 16.09 Fair CLR 8 4 76% 76.56 0.0
03 07:15 Calm 16.09 Fair CLR 8 3 71% 76.5 0.0
03 06:55 Calm 16.09 Fair CLR 7 3 76% 76.5 0.0
03 06:35 Calm 16.09 Fair CLR 7 3 76% 76.48 0.0
03 06:15 Calm 16.09 Fair CLR 7 3 76% 76.43 0.0
03 05:55 Calm 16.09 Fair CLR 7 3 76% 76.43 0.0
03 05:35 Calm 16.09 Fair CLR 7 3 76% 76.43 0.0
03 05:15 Calm 16.09 Fair CLR 7 3 76% 76.43 0.0
03 04:55 Calm 16.09 Fair CLR 8 3 71% 76.43 0.0
03 04:35 Calm 16.09 Fair CLR 8 3 71% 76.4 0.0
03 04:15 Calm 16.09 Fair CLR 8 3 71% 76.4 0.0
03 03:55 Calm 16.09 Fair CLR 9 2 62% 76.38 0.0
03 03:35 Calm 16.09 Fair CLR 10 2 58% 76.38 0.0
03 03:15 Calm 16.09 Fair CLR 9 3 66% 76.35 0.0
03 02:55 Calm 16.09 Fair CLR 10 2 58% 76.35 0.0
03 02:35 Calm 16.09 Fair CLR 10 2 58% 76.35 0.0
03 02:15 Calm 16.09 Fair CLR 9 2 62% 76.35 0.0
03 01:55 Calm 16.09 Fair CLR 10 2 58% 76.35 0.0
03 01:35 Calm 16.09 Fair CLR 9 2 62% 76.35 0.0
03 01:15 Calm 16.09 Fair CLR 10 2 58% 76.35 0.0
03 00:55 Calm 16.09 Fair CLR 10 2 58% 76.33 0.0
03 00:35 Calm 16.09 Fair CLR 10 2 58% 76.33 0.0
03 00:15 Calm 16.09 Fair CLR 10 2 58% 76.33 0.0
02 23:55 Calm 16.09 Fair CLR 10 2 58% 76.3 0.0
02 23:35 Calm 16.09 Fair CLR 10 2 58% 76.3 0.0
02 23:15 Calm 16.09 Fair CLR 11 2 54% 76.3 0.0
02 22:55 Calm 16.09 Fair CLR 12 1 47% 76.28 0.0
02 22:35 Calm 16.09 Fair CLR 12 1 47% 76.28 0.0
02 22:15 Calm 16.09 Fair CLR 13 1 44% 76.25 0.0
02 21:55 Calm 16.09 Fair CLR 13 1 44% 76.23 0.0
02 21:35 Calm 16.09 Fair CLR 14 0 39% 76.2 0.0
02 21:15 Calm 16.09 Fair CLR 15 0 36% 76.17 0.0
02 20:55 Calm 16.09 Fair CLR 15 0 36% 76.15 0.0
02 20:35 Calm 16.09 Fair CLR 15 0 36% 76.12 0.0
02 20:15 Calm 16.09 Fair CLR 16 0 34% 76.1 0.0
02 19:35 Calm 16.09 Fair CLR 17 0 32% 76.02 0.0
02 19:15 Calm 16.09 Fair CLR 18 1 32% 76 0.0
02 18:55 Calm 16.09 Fair CLR 19 1 30% 75.97 0.0
02 18:35 Calm 16.09 Fair CLR 20 1 28% 75.95 0.0
02 18:15 Calm 16.09 Fair CLR 20 5 38% 75.92 0.0
02 17:55 Calm 16.09 Partly Cloudy SCT090 20 5 38% 75.9 0.0
02 17:35 Calm 16.09 Partly Cloudy SCT090 20 6 40% 75.87 0.0
02 17:15 Calm 16.09 Fair CLR 21 7 40% 75.87 0.0
02 16:35 Calm 16.09 Mostly Cloudy SCT050 SCT065 BKN075 19 10 56% 75.87 0.0
02 16:15 Calm 16.09 Mostly Cloudy SCT050 BKN060 BKN070 20 10 53% 75.9 0.0
02 15:55 Calm 16.09 Mostly Cloudy SCT065 SCT075 BKN090 18 10 60% 75.9 0.0
02 15:35 Calm 16.09 Mostly Cloudy SCT042 SCT047 BKN090 18 10 60% 75.9 0.0
02 15:15 Calm 16.09 Mostly Cloudy SCT041 SCT050 BKN060 18 10 60% 75.92 0.0
02 14:35 Calm 16.09 Overcast SCT047 BKN060 OVC075 18 11 64% 75.95 0.0
02 14:15 Calm 16.09 Mostly Cloudy SCT047 BKN070 BKN110 20 9 49% 75.95 0.0
02 13:55 Calm 16.09 Overcast SCT042 BKN070 OVC120 19 9 52% 75.95 0.0
02 13:35 Calm 16.09 Mostly Cloudy SCT042 SCT055 BKN120 18 8 52% 75.97 0.0
02 13:15 Calm 16.09 Mostly Cloudy SCT033 BKN120 18 9 56% 76 0.0
02 12:55 Calm 16.09 Partly Cloudy SCT025 SCT033 SCT110 17 11 68% 76 0.0
02 12:35 Calm 16.09 Overcast BKN023 BKN032 OVC120 17 11 68% 76.02 0.0
02 12:15 Calm 16.09 Overcast SCT023 OVC120 17 11 68% 76.05 0.0
02 11:35 Calm 16.09 Mostly Cloudy SCT019 BKN120 16 11 72% 76.02 0.0
02 11:15 Calm 16.09 Overcast OVC110 16 11 72% 76.05 0.0
02 10:55 Calm 16.09 Overcast OVC110 15 11 77% 76.05 0.0
02 10:35 Calm 16.09 Overcast OVC110 15 10 72% 76 0.0
02 10:15 Calm 16.09 Overcast OVC110 15 10 72% 76 0.0
02 09:55 Calm 16.09 Overcast OVC110 14 10 77% 75.97 0.0
02 09:35 Calm 16.09 Overcast OVC100 14 10 77% 75.97 0.0
02 08:55 Calm 16.09 Overcast OVC100 13 11 88% 76.02 0.0
02 08:35 Calm 16.09 Overcast OVC110 13 11 88% 75.97 0.0
02 08:15 Calm 16.09 Overcast SCT044 BKN090 OVC110 12 12 100% 75.97 0.0
02 07:55 Calm 16.09 Light Rain SCT070 OVC090 12 11 94% 75.92 0.0
02 07:35 Calm 16.09 Overcast BKN070 OVC100 12 11 94% 75.97 0.0
02 07:15 Calm 16.09 Overcast OVC100 12 11 94% 76 0.0
02 06:55 Calm 16.09 Overcast OVC090 12 11 94% 75.97 0.0
02 06:35 Calm 16.09 Overcast OVC090 12 11 94% 75.87 0.0
02 06:15 Calm 16.09 Overcast OVC100 12 11 94% 75.9 0.0
02 05:55 Calm 16.09 Overcast OVC100 12 11 94% 75.9 0.0
02 05:35 Calm 16.09 Overcast OVC100 12 11 94% 75.92 0.0
02 05:15 Calm 16.09 Overcast OVC090 12 11 94% 75.87 0.0
02 04:55 Calm 16.09 Overcast OVC090 12 11 94% 75.92 0.0
02 04:35 Calm 16.09 Overcast OVC090 12 11 94% 75.92 0.0
02 04:15 Calm 16.09 Light Drizzle BKN090 OVC120 12 11 94% 75.92 0.0
02 03:55 Calm 16.09 Light Rain OVC090 13 11 88% 75.95 0.0
02 03:35 Calm 16.09 Rain OVC080 13 10 82% 75.95 0.0
02 03:15 Calm 16.09 Drizzle OVC090 14 10 77% 75.97 0.0
02 02:55 Calm 16.09 Light Rain SCT049 SCT075 OVC090 15 8 63% 75.97 0.0
02 02:35 Calm 16.09 Light Drizzle SCT065 SCT075 OVC090 15 8 63% 75.97 0.0
02 02:15 Calm 16.09 Overcast SCT070 SCT075 OVC100 14 10 77% 75.95 0.0
02 01:55 Calm 16.09 Overcast OVC100 15 8 63% 75.97 0.0
02 01:35 Calm 16.09 Overcast SCT095 OVC110 15 9 68% 75.95 0.0
02 01:15 Calm 16.09 Overcast OVC120 15 9 68% 76 0.0
02 00:55 Calm 16.09 Overcast OVC120 15 9 68% 76 0.0
02 00:35 Calm 16.09 Overcast OVC120 15 9 68% 76 0.0
02 00:15 Calm 16.09 Overcast OVC110 15 9 68% 76.05 0.0
01 23:55 Calm 16.09 Mostly Cloudy BKN100 BKN120 16 9 63% 76.05 0.0
Date Time (edt) Wind (kph) Vis. (km) Weather Sky Cond. Air Dwpt Max. Min. Relative Humidity Wind Chill (°C) Heat Index (°C) altimeter (cm) sea level (mb) 1 hr 3 hr 6 hr
6 hour
Temperature (ºC) Pressure Precipitation (cm)